sensor_id;sensor_type;location;lat;lon;timestamp;temperature;humidity
14000;DHT22;7075;53.574;10.054;2022-10-16T00:01:45;15.00;99.90
14000;DHT22;7075;53.574;10.054;2022-10-16T00:04:11;15.10;99.90
14000;DHT22;7075;53.574;10.054;2022-10-16T00:06:37;15.10;99.90
14000;DHT22;7075;53.574;10.054;2022-10-16T00:09:03;15.10;99.90
14000;DHT22;7075;53.574;10.054;2022-10-16T00:11:32;15.10;99.90
14000;DHT22;7075;53.574;10.054;2022-10-16T00:14:07;15.10;99.90
14000;DHT22;7075;53.574;10.054;2022-10-16T00:16:34;15.10;99.90
14000;DHT22;7075;53.574;10.054;2022-10-16T00:18:59;15.00;99.90
14000;DHT22;7075;53.574;10.054;2022-10-16T00:21:28;15.00;99.90
14000;DHT22;7075;53.574;10.054;2022-10-16T00:23:57;15.00;99.90
14000;DHT22;7075;53.574;10.054;2022-10-16T00:26:24;15.00;99.90
14000;DHT22;7075;53.574;10.054;2022-10-16T00:28:51;15.00;99.90
14000;DHT22;7075;53.574;10.054;2022-10-16T00:31:17;15.00;99.90
14000;DHT22;7075;53.574;10.054;2022-10-16T00:33:44;15.00;99.90
14000;DHT22;7075;53.574;10.054;2022-10-16T00:36:12;15.00;99.90
14000;DHT22;7075;53.574;10.054;2022-10-16T00:38:38;15.00;99.90
14000;DHT22;7075;53.574;10.054;2022-10-16T00:41:09;15.00;99.90
14000;DHT22;7075;53.574;10.054;2022-10-16T00:43:47;15.00;99.90
14000;DHT22;7075;53.574;10.054;2022-10-16T00:46:21;15.00;99.90
14000;DHT22;7075;53.574;10.054;2022-10-16T00:49:01;15.00;99.90
14000;DHT22;7075;53.574;10.054;2022-10-16T00:51:33;15.00;99.90
14000;DHT22;7075;53.574;10.054;2022-10-16T00:54:01;15.10;99.90
14000;DHT22;7075;53.574;10.054;2022-10-16T00:56:27;15.00;99.90
14000;DHT22;7075;53.574;10.054;2022-10-16T00:58:53;15.00;99.90
14000;DHT22;7075;53.574;10.054;2022-10-16T01:01:19;15.00;99.90
14000;DHT22;7075;53.574;10.054;2022-10-16T01:03:44;15.00;99.90
14000;DHT22;7075;53.574;10.054;2022-10-16T01:06:42;15.00;99.90
14000;DHT22;7075;53.574;10.054;2022-10-16T01:09:20;15.00;99.90
14000;DHT22;7075;53.574;10.054;2022-10-16T01:14:48;15.00;99.90
14000;DHT22;7075;53.574;10.054;2022-10-16T01:17:26;15.00;99.90
14000;DHT22;7075;53.574;10.054;2022-10-16T01:20:20;15.00;99.90
14000;DHT22;7075;53.574;10.054;2022-10-16T01:26:02;14.90;99.90
14000;DHT22;7075;53.574;10.054;2022-10-16T01:28:52;14.90;99.90
14000;DHT22;7075;53.574;10.054;2022-10-16T01:31:23;14.80;99.90
14000;DHT22;7075;53.574;10.054;2022-10-16T01:34:06;14.70;99.90
14000;DHT22;7075;53.574;10.054;2022-10-16T01:36:41;14.70;99.90
14000;DHT22;7075;53.574;10.054;2022-10-16T01:39:10;14.70;99.90
14000;DHT22;7075;53.574;10.054;2022-10-16T01:41:44;14.70;99.90
14000;DHT22;7075;53.574;10.054;2022-10-16T01:44:26;14.70;99.90
14000;DHT22;7075;53.574;10.054;2022-10-16T01:46:54;14.70;99.90
14000;DHT22;7075;53.574;10.054;2022-10-16T01:49:22;14.60;99.90
14000;DHT22;7075;53.574;10.054;2022-10-16T01:51:53;14.60;99.90
14000;DHT22;7075;53.574;10.054;2022-10-16T01:54:20;14.60;99.90
14000;DHT22;7075;53.574;10.054;2022-10-16T01:56:49;14.60;99.90
14000;DHT22;7075;53.574;10.054;2022-10-16T01:59:18;14.60;99.90
14000;DHT22;7075;53.574;10.054;2022-10-16T02:01:52;14.60;99.90
14000;DHT22;7075;53.574;10.054;2022-10-16T02:04:28;14.60;99.90
14000;DHT22;7075;53.574;10.054;2022-10-16T02:06:54;14.60;99.90
14000;DHT22;7075;53.574;10.054;2022-10-16T02:09:20;14.50;99.90
14000;DHT22;7075;53.574;10.054;2022-10-16T02:11:47;14.60;99.90
14000;DHT22;7075;53.574;10.054;2022-10-16T02:14:14;14.50;99.90
14000;DHT22;7075;53.574;10.054;2022-10-16T02:16:45;14.50;99.90
14000;DHT22;7075;53.574;10.054;2022-10-16T02:19:13;14.40;99.90
14000;DHT22;7075;53.574;10.054;2022-10-16T02:21:56;14.40;99.90
14000;DHT22;7075;53.574;10.054;2022-10-16T02:24:31;14.40;99.90
14000;DHT22;7075;53.574;10.054;2022-10-16T02:27:53;14.30;99.90
14000;DHT22;7075;53.574;10.054;2022-10-16T02:30:30;14.30;99.90
14000;DHT22;7075;53.574;10.054;2022-10-16T02:32:59;14.30;99.90
14000;DHT22;7075;53.574;10.054;2022-10-16T02:35:26;14.30;99.90
14000;DHT22;7075;53.574;10.054;2022-10-16T02:37:53;14.20;99.90
14000;DHT22;7075;53.574;10.054;2022-10-16T02:40:20;14.10;99.90
14000;DHT22;7075;53.574;10.054;2022-10-16T02:42:50;14.10;99.90
14000;DHT22;7075;53.574;10.054;2022-10-16T02:45:16;14.20;99.90
14000;DHT22;7075;53.574;10.054;2022-10-16T02:47:42;14.10;99.90
14000;DHT22;7075;53.574;10.054;2022-10-16T02:50:08;14.10;99.90
14000;DHT22;7075;53.574;10.054;2022-10-16T02:52:34;14.10;99.90
14000;DHT22;7075;53.574;10.054;2022-10-16T02:54:59;14.10;99.90
14000;DHT22;7075;53.574;10.054;2022-10-16T02:57:25;14.10;99.90
14000;DHT22;7075;53.574;10.054;2022-10-16T02:59:50;14.00;99.90
14000;DHT22;7075;53.574;10.054;2022-10-16T03:02:16;14.00;99.90
14000;DHT22;7075;53.574;10.054;2022-10-16T03:04:41;14.00;99.90
14000;DHT22;7075;53.574;10.054;2022-10-16T03:07:07;13.90;99.90
14000;DHT22;7075;53.574;10.054;2022-10-16T03:09:33;13.90;99.90
14000;DHT22;7075;53.574;10.054;2022-10-16T03:11:58;13.90;99.90
14000;DHT22;7075;53.574;10.054;2022-10-16T03:14:24;13.90;99.90
14000;DHT22;7075;53.574;10.054;2022-10-16T03:16:50;13.80;99.90
14000;DHT22;7075;53.574;10.054;2022-10-16T03:19:19;13.90;99.90
14000;DHT22;7075;53.574;10.054;2022-10-16T03:21:44;13.90;99.90
14000;DHT22;7075;53.574;10.054;2022-10-16T03:24:10;13.80;99.90
14000;DHT22;7075;53.574;10.054;2022-10-16T03:26:36;13.70;99.90
14000;DHT22;7075;53.574;10.054;2022-10-16T03:29:01;13.80;99.90
14000;DHT22;7075;53.574;10.054;2022-10-16T03:31:29;13.80;99.90
14000;DHT22;7075;53.574;10.054;2022-10-16T03:33:54;13.80;99.90
14000;DHT22;7075;53.574;10.054;2022-10-16T03:36:20;13.80;99.90
14000;DHT22;7075;53.574;10.054;2022-10-16T03:38:45;13.70;99.90
14000;DHT22;7075;53.574;10.054;2022-10-16T03:41:11;13.70;99.90
14000;DHT22;7075;53.574;10.054;2022-10-16T03:43:37;13.70;99.90
14000;DHT22;7075;53.574;10.054;2022-10-16T03:46:02;13.60;99.90
14000;DHT22;7075;53.574;10.054;2022-10-16T03:48:29;13.50;99.90
14000;DHT22;7075;53.574;10.054;2022-10-16T03:50:54;13.50;99.90
14000;DHT22;7075;53.574;10.054;2022-10-16T03:53:20;13.50;99.90
14000;DHT22;7075;53.574;10.054;2022-10-16T03:55:46;13.50;99.90
14000;DHT22;7075;53.574;10.054;2022-10-16T03:58:12;13.50;99.90
14000;DHT22;7075;53.574;10.054;2022-10-16T04:00:42;13.50;99.90
14000;DHT22;7075;53.574;10.054;2022-10-16T04:03:08;13.50;99.90
14000;DHT22;7075;53.574;10.054;2022-10-16T04:05:34;13.50;99.90
14000;DHT22;7075;53.574;10.054;2022-10-16T04:07:59;13.40;99.90
14000;DHT22;7075;53.574;10.054;2022-10-16T04:10:25;13.40;99.90
14000;DHT22;7075;53.574;10.054;2022-10-16T04:12:51;13.40;99.90
14000;DHT22;7075;53.574;10.054;2022-10-16T04:15:16;13.30;99.90
14000;DHT22;7075;53.574;10.054;2022-10-16T04:17:42;13.30;99.90
14000;DHT22;7075;53.574;10.054;2022-10-16T04:20:08;13.30;99.90
14000;DHT22;7075;53.574;10.054;2022-10-16T04:22:33;13.30;99.90
14000;DHT22;7075;53.574;10.054;2022-10-16T04:24:59;13.30;99.90
14000;DHT22;7075;53.574;10.054;2022-10-16T04:27:25;13.30;99.90
14000;DHT22;7075;53.574;10.054;2022-10-16T04:29:50;13.30;99.90
14000;DHT22;7075;53.574;10.054;2022-10-16T04:32:16;13.30;99.90
14000;DHT22;7075;53.574;10.054;2022-10-16T04:34:41;13.30;99.90
14000;DHT22;7075;53.574;10.054;2022-10-16T04:37:07;13.30;99.90
14000;DHT22;7075;53.574;10.054;2022-10-16T04:39:32;13.30;99.90
14000;DHT22;7075;53.574;10.054;2022-10-16T04:41:58;13.30;99.90
14000;DHT22;7075;53.574;10.054;2022-10-16T04:44:23;13.30;99.90
14000;DHT22;7075;53.574;10.054;2022-10-16T04:46:52;13.30;99.90
14000;DHT22;7075;53.574;10.054;2022-10-16T04:49:17;13.30;99.90
14000;DHT22;7075;53.574;10.054;2022-10-16T04:51:43;13.30;99.90
14000;DHT22;7075;53.574;10.054;2022-10-16T04:54:09;13.30;99.90
14000;DHT22;7075;53.574;10.054;2022-10-16T04:56:35;13.30;99.90
14000;DHT22;7075;53.574;10.054;2022-10-16T04:59:08;13.20;99.90
14000;DHT22;7075;53.574;10.054;2022-10-16T05:01:33;13.20;99.90
14000;DHT22;7075;53.574;10.054;2022-10-16T05:03:59;13.20;99.90
14000;DHT22;7075;53.574;10.054;2022-10-16T05:06:25;13.20;99.90
14000;DHT22;7075;53.574;10.054;2022-10-16T05:08:50;13.20;99.90
14000;DHT22;7075;53.574;10.054;2022-10-16T05:11:16;13.20;99.90
14000;DHT22;7075;53.574;10.054;2022-10-16T05:13:42;13.20;99.90
14000;DHT22;7075;53.574;10.054;2022-10-16T05:16:07;13.20;99.90
14000;DHT22;7075;53.574;10.054;2022-10-16T05:18:33;13.20;99.90
14000;DHT22;7075;53.574;10.054;2022-10-16T05:20:58;13.20;99.90
14000;DHT22;7075;53.574;10.054;2022-10-16T05:23:24;13.20;99.90
14000;DHT22;7075;53.574;10.054;2022-10-16T05:25:56;13.20;99.90
14000;DHT22;7075;53.574;10.054;2022-10-16T05:28:27;13.30;99.90
14000;DHT22;7075;53.574;10.054;2022-10-16T05:30:53;13.30;99.90
14000;DHT22;7075;53.574;10.054;2022-10-16T05:33:23;13.20;99.90
14000;DHT22;7075;53.574;10.054;2022-10-16T05:35:50;13.30;99.90
14000;DHT22;7075;53.574;10.054;2022-10-16T05:38:16;13.30;99.90
14000;DHT22;7075;53.574;10.054;2022-10-16T05:40:42;13.20;99.90
14000;DHT22;7075;53.574;10.054;2022-10-16T05:43:07;13.30;99.90
14000;DHT22;7075;53.574;10.054;2022-10-16T05:45:33;13.30;99.90
14000;DHT22;7075;53.574;10.054;2022-10-16T05:47:59;13.30;99.90
14000;DHT22;7075;53.574;10.054;2022-10-16T05:50:25;13.30;99.90
14000;DHT22;7075;53.574;10.054;2022-10-16T05:52:51;13.40;99.90
14000;DHT22;7075;53.574;10.054;2022-10-16T05:55:16;13.40;99.90
14000;DHT22;7075;53.574;10.054;2022-10-16T05:57:42;13.40;99.90
14000;DHT22;7075;53.574;10.054;2022-10-16T06:00:08;13.50;99.90
14000;DHT22;7075;53.574;10.054;2022-10-16T06:02:34;13.40;99.90
14000;DHT22;7075;53.574;10.054;2022-10-16T06:04:59;13.30;99.90
14000;DHT22;7075;53.574;10.054;2022-10-16T06:07:25;13.30;99.90
14000;DHT22;7075;53.574;10.054;2022-10-16T06:09:52;13.30;99.90
14000;DHT22;7075;53.574;10.054;2022-10-16T06:12:18;13.30;99.90
14000;DHT22;7075;53.574;10.054;2022-10-16T06:14:45;13.30;99.90
14000;DHT22;7075;53.574;10.054;2022-10-16T06:17:12;13.20;99.90
14000;DHT22;7075;53.574;10.054;2022-10-16T06:19:38;13.30;99.90
14000;DHT22;7075;53.574;10.054;2022-10-16T06:22:04;13.30;99.90
14000;DHT22;7075;53.574;10.054;2022-10-16T06:24:30;13.20;99.90
14000;DHT22;7075;53.574;10.054;2022-10-16T06:26:55;13.20;99.90
14000;DHT22;7075;53.574;10.054;2022-10-16T06:29:20;13.20;99.90
14000;DHT22;7075;53.574;10.054;2022-10-16T06:31:46;13.20;99.90
14000;DHT22;7075;53.574;10.054;2022-10-16T06:34:12;13.20;99.90
14000;DHT22;7075;53.574;10.054;2022-10-16T06:36:38;13.10;99.90
14000;DHT22;7075;53.574;10.054;2022-10-16T06:39:04;13.10;99.90
14000;DHT22;7075;53.574;10.054;2022-10-16T06:41:30;13.10;99.90
14000;DHT22;7075;53.574;10.054;2022-10-16T06:43:56;13.10;99.90
14000;DHT22;7075;53.574;10.054;2022-10-16T06:46:24;13.10;99.90
14000;DHT22;7075;53.574;10.054;2022-10-16T06:48:50;13.10;99.90
14000;DHT22;7075;53.574;10.054;2022-10-16T06:51:17;13.10;99.90
14000;DHT22;7075;53.574;10.054;2022-10-16T06:53:48;13.20;99.90
14000;DHT22;7075;53.574;10.054;2022-10-16T06:56:19;13.20;99.90
14000;DHT22;7075;53.574;10.054;2022-10-16T06:58:46;13.10;99.90
14000;DHT22;7075;53.574;10.054;2022-10-16T07:01:12;13.10;99.90
14000;DHT22;7075;53.574;10.054;2022-10-16T07:03:40;13.20;99.90
14000;DHT22;7075;53.574;10.054;2022-10-16T07:06:08;13.20;99.90
14000;DHT22;7075;53.574;10.054;2022-10-16T07:08:36;13.20;99.90
14000;DHT22;7075;53.574;10.054;2022-10-16T07:11:04;13.30;99.90
14000;DHT22;7075;53.574;10.054;2022-10-16T07:13:33;13.30;99.90
14000;DHT22;7075;53.574;10.054;2022-10-16T07:16:11;13.40;99.90
14000;DHT22;7075;53.574;10.054;2022-10-16T07:18:38;13.50;99.90
14000;DHT22;7075;53.574;10.054;2022-10-16T07:21:09;13.60;99.90
14000;DHT22;7075;53.574;10.054;2022-10-16T07:23:36;13.70;99.90
14000;DHT22;7075;53.574;10.054;2022-10-16T07:26:01;13.70;99.90
14000;DHT22;7075;53.574;10.054;2022-10-16T07:28:28;13.70;99.90
14000;DHT22;7075;53.574;10.054;2022-10-16T07:30:53;13.70;99.90
14000;DHT22;7075;53.574;10.054;2022-10-16T07:33:19;13.70;99.90
14000;DHT22;7075;53.574;10.054;2022-10-16T07:35:52;13.80;99.90
14000;DHT22;7075;53.574;10.054;2022-10-16T07:38:19;13.80;99.90
14000;DHT22;7075;53.574;10.054;2022-10-16T07:40:45;13.80;99.90
14000;DHT22;7075;53.574;10.054;2022-10-16T07:43:10;13.90;99.90
14000;DHT22;7075;53.574;10.054;2022-10-16T07:45:36;13.90;99.90
14000;DHT22;7075;53.574;10.054;2022-10-16T07:48:02;14.00;99.90
14000;DHT22;7075;53.574;10.054;2022-10-16T07:50:28;14.00;99.90
14000;DHT22;7075;53.574;10.054;2022-10-16T07:52:53;14.10;99.90
14000;DHT22;7075;53.574;10.054;2022-10-16T07:55:19;14.20;99.90
14000;DHT22;7075;53.574;10.054;2022-10-16T07:57:44;14.20;99.90
14000;DHT22;7075;53.574;10.054;2022-10-16T08:00:10;14.30;99.90
14000;DHT22;7075;53.574;10.054;2022-10-16T08:02:45;14.40;99.90
14000;DHT22;7075;53.574;10.054;2022-10-16T08:05:11;14.40;99.90
14000;DHT22;7075;53.574;10.054;2022-10-16T08:07:36;14.40;99.90
14000;DHT22;7075;53.574;10.054;2022-10-16T08:10:02;14.50;99.90
14000;DHT22;7075;53.574;10.054;2022-10-16T08:12:29;14.50;99.90
14000;DHT22;7075;53.574;10.054;2022-10-16T08:14:54;14.50;99.90
14000;DHT22;7075;53.574;10.054;2022-10-16T08:17:20;14.50;99.90
14000;DHT22;7075;53.574;10.054;2022-10-16T08:19:46;14.50;99.90
14000;DHT22;7075;53.574;10.054;2022-10-16T08:22:13;14.50;99.90
14000;DHT22;7075;53.574;10.054;2022-10-16T08:24:40;14.50;99.90
14000;DHT22;7075;53.574;10.054;2022-10-16T08:27:05;14.50;99.90
14000;DHT22;7075;53.574;10.054;2022-10-16T08:29:32;14.60;99.90
14000;DHT22;7075;53.574;10.054;2022-10-16T08:31:57;14.60;99.90
14000;DHT22;7075;53.574;10.054;2022-10-16T08:34:23;14.70;99.90
14000;DHT22;7075;53.574;10.054;2022-10-16T08:36:49;14.80;99.90
14000;DHT22;7075;53.574;10.054;2022-10-16T08:39:15;14.90;99.90
14000;DHT22;7075;53.574;10.054;2022-10-16T08:45:08;15.20;99.90
14000;DHT22;7075;53.574;10.054;2022-10-16T08:47:41;15.20;99.90
14000;DHT22;7075;53.574;10.054;2022-10-16T08:50:11;15.20;99.90
14000;DHT22;7075;53.574;10.054;2022-10-16T08:52:41;15.20;99.90
14000;DHT22;7075;53.574;10.054;2022-10-16T08:55:21;15.30;99.90
14000;DHT22;7075;53.574;10.054;2022-10-16T08:57:50;15.30;99.90
14000;DHT22;7075;53.574;10.054;2022-10-16T09:00:17;15.30;99.90
14000;DHT22;7075;53.574;10.054;2022-10-16T09:03:04;15.40;99.90
14000;DHT22;7075;53.574;10.054;2022-10-16T09:05:57;15.40;99.90
14000;DHT22;7075;53.574;10.054;2022-10-16T09:08:45;15.40;99.90
14000;DHT22;7075;53.574;10.054;2022-10-16T09:14:07;15.50;99.90
14000;DHT22;7075;53.574;10.054;2022-10-16T09:16:43;15.60;99.90
14000;DHT22;7075;53.574;10.054;2022-10-16T09:19:27;15.70;99.90
14000;DHT22;7075;53.574;10.054;2022-10-16T09:21:55;15.70;99.90
14000;DHT22;7075;53.574;10.054;2022-10-16T09:24:24;15.80;99.90
14000;DHT22;7075;53.574;10.054;2022-10-16T09:26:50;15.80;99.90
14000;DHT22;7075;53.574;10.054;2022-10-16T09:29:18;15.80;99.90
14000;DHT22;7075;53.574;10.054;2022-10-16T09:31:50;15.90;99.90
14000;DHT22;7075;53.574;10.054;2022-10-16T09:34:32;16.00;99.90
14000;DHT22;7075;53.574;10.054;2022-10-16T09:37:01;16.10;99.90
14000;DHT22;7075;53.574;10.054;2022-10-16T09:39:28;16.20;99.90
14000;DHT22;7075;53.574;10.054;2022-10-16T09:41:55;16.30;99.90
14000;DHT22;7075;53.574;10.054;2022-10-16T09:44:31;16.30;99.90
14000;DHT22;7075;53.574;10.054;2022-10-16T09:47:14;16.30;99.90
14000;DHT22;7075;53.574;10.054;2022-10-16T09:50:00;16.30;99.90
14000;DHT22;7075;53.574;10.054;2022-10-16T09:52:28;16.30;99.90
14000;DHT22;7075;53.574;10.054;2022-10-16T09:54:57;16.40;99.90
14000;DHT22;7075;53.574;10.054;2022-10-16T09:57:23;16.50;99.90
14000;DHT22;7075;53.574;10.054;2022-10-16T09:59:54;16.50;99.90
14000;DHT22;7075;53.574;10.054;2022-10-16T10:02:35;16.70;99.90
14000;DHT22;7075;53.574;10.054;2022-10-16T10:05:05;16.80;99.90
14000;DHT22;7075;53.574;10.054;2022-10-16T10:07:33;16.90;99.90
14000;DHT22;7075;53.574;10.054;2022-10-16T10:10:03;17.00;99.90
14000;DHT22;7075;53.574;10.054;2022-10-16T10:12:30;17.10;99.90
14000;DHT22;7075;53.574;10.054;2022-10-16T10:15:12;17.10;99.90
14000;DHT22;7075;53.574;10.054;2022-10-16T10:18:15;17.20;99.90
14000;DHT22;7075;53.574;10.054;2022-10-16T10:20:41;17.20;99.90
14000;DHT22;7075;53.574;10.054;2022-10-16T10:23:22;17.30;99.90
14000;DHT22;7075;53.574;10.054;2022-10-16T10:25:53;17.30;99.90
14000;DHT22;7075;53.574;10.054;2022-10-16T10:28:46;17.40;99.90
14000;DHT22;7075;53.574;10.054;2022-10-16T10:34:35;17.50;99.90
14000;DHT22;7075;53.574;10.054;2022-10-16T10:37:55;17.80;99.90
14000;DHT22;7075;53.574;10.054;2022-10-16T10:40:09;18.00;99.90
14000;DHT22;7075;53.574;10.054;2022-10-16T10:43:04;17.90;99.90
14000;DHT22;7075;53.574;10.054;2022-10-16T10:45:43;17.80;99.90
14000;DHT22;7075;53.574;10.054;2022-10-16T10:48:43;18.00;99.90
14000;DHT22;7075;53.574;10.054;2022-10-16T10:54:22;18.00;99.90
14000;DHT22;7075;53.574;10.054;2022-10-16T11:02:41;18.00;99.90
14000;DHT22;7075;53.574;10.054;2022-10-16T11:08:00;18.20;99.90
14000;DHT22;7075;53.574;10.054;2022-10-16T11:10:33;18.30;99.90
14000;DHT22;7075;53.574;10.054;2022-10-16T11:13:20;18.30;99.90
14000;DHT22;7075;53.574;10.054;2022-10-16T11:15:48;18.50;99.90
14000;DHT22;7075;53.574;10.054;2022-10-16T11:18:20;18.60;99.90
14000;DHT22;7075;53.574;10.054;2022-10-16T11:20:57;18.60;99.90
14000;DHT22;7075;53.574;10.054;2022-10-16T11:23:26;18.60;99.90
14000;DHT22;7075;53.574;10.054;2022-10-16T11:25:58;18.70;99.90
14000;DHT22;7075;53.574;10.054;2022-10-16T11:28:31;18.80;99.90
14000;DHT22;7075;53.574;10.054;2022-10-16T11:33:41;19.00;99.90
14000;DHT22;7075;53.574;10.054;2022-10-16T11:42:09;19.00;99.90
14000;DHT22;7075;53.574;10.054;2022-10-16T11:47:24;18.80;99.90
14000;DHT22;7075;53.574;10.054;2022-10-16T11:49:56;18.80;99.90
14000;DHT22;7075;53.574;10.054;2022-10-16T11:52:25;19.10;99.90
14000;DHT22;7075;53.574;10.054;2022-10-16T11:54:56;19.10;99.90
14000;DHT22;7075;53.574;10.054;2022-10-16T11:57:49;19.00;99.90
14000;DHT22;7075;53.574;10.054;2022-10-16T12:00:28;18.80;99.90
14000;DHT22;7075;53.574;10.054;2022-10-16T12:03:04;18.60;99.90
14000;DHT22;7075;53.574;10.054;2022-10-16T12:08:29;18.40;99.90
14000;DHT22;7075;53.574;10.054;2022-10-16T12:11:09;18.20;99.90
14000;DHT22;7075;53.574;10.054;2022-10-16T12:13:44;18.20;99.90
14000;DHT22;7075;53.574;10.054;2022-10-16T12:18:44;18.40;99.90
14000;DHT22;7075;53.574;10.054;2022-10-16T12:21:11;18.70;99.90
14000;DHT22;7075;53.574;10.054;2022-10-16T12:23:59;19.20;99.90
14000;DHT22;7075;53.574;10.054;2022-10-16T12:26:31;19.10;99.90
14000;DHT22;7075;53.574;10.054;2022-10-16T12:31:47;18.80;99.90
14000;DHT22;7075;53.574;10.054;2022-10-16T12:34:42;18.60;99.90
14000;DHT22;7075;53.574;10.054;2022-10-16T12:37:15;18.40;99.90
14000;DHT22;7075;53.574;10.054;2022-10-16T12:39:44;18.80;99.90
14000;DHT22;7075;53.574;10.054;2022-10-16T12:44:55;19.30;99.90
14000;DHT22;7075;53.574;10.054;2022-10-16T12:49:56;19.20;99.90
14000;DHT22;7075;53.574;10.054;2022-10-16T12:52:36;19.20;99.90
14000;DHT22;7075;53.574;10.054;2022-10-16T12:55:03;19.60;99.90
14000;DHT22;7075;53.574;10.054;2022-10-16T13:06:08;19.20;99.90
14000;DHT22;7075;53.574;10.054;2022-10-16T13:17:53;18.80;99.90
14000;DHT22;7075;53.574;10.054;2022-10-16T13:23:16;19.10;99.90
14000;DHT22;7075;53.574;10.054;2022-10-16T13:28:31;19.50;99.90
14000;DHT22;7075;53.574;10.054;2022-10-16T13:30:59;19.60;99.90
14000;DHT22;7075;53.574;10.054;2022-10-16T13:35:56;20.00;99.90
14000;DHT22;7075;53.574;10.054;2022-10-16T13:38:33;20.30;99.90
14000;DHT22;7075;53.574;10.054;2022-10-16T13:41:00;20.90;99.90
14000;DHT22;7075;53.574;10.054;2022-10-16T13:43:38;21.00;99.90
14000;DHT22;7075;53.574;10.054;2022-10-16T13:46:10;21.30;99.90
14000;DHT22;7075;53.574;10.054;2022-10-16T13:48:37;20.70;99.90
14000;DHT22;7075;53.574;10.054;2022-10-16T13:53:32;20.70;99.90
14000;DHT22;7075;53.574;10.054;2022-10-16T13:55:58;20.60;99.90
14000;DHT22;7075;53.574;10.054;2022-10-16T13:58:25;20.70;99.90
14000;DHT22;7075;53.574;10.054;2022-10-16T14:01:18;20.60;99.90
14000;DHT22;7075;53.574;10.054;2022-10-16T14:03:46;21.00;99.90
14000;DHT22;7075;53.574;10.054;2022-10-16T14:06:14;21.20;99.90
14000;DHT22;7075;53.574;10.054;2022-10-16T14:09:05;21.30;99.90
14000;DHT22;7075;53.574;10.054;2022-10-16T14:11:31;21.10;99.90
14000;DHT22;7075;53.574;10.054;2022-10-16T14:13:57;21.00;99.90
14000;DHT22;7075;53.574;10.054;2022-10-16T14:16:27;20.90;99.90
14000;DHT22;7075;53.574;10.054;2022-10-16T14:19:02;20.60;99.90
14000;DHT22;7075;53.574;10.054;2022-10-16T14:21:29;20.60;99.90
14000;DHT22;7075;53.574;10.054;2022-10-16T14:23:55;20.80;99.90
14000;DHT22;7075;53.574;10.054;2022-10-16T14:26:23;20.90;99.90
14000;DHT22;7075;53.574;10.054;2022-10-16T14:29:03;20.80;99.90
14000;DHT22;7075;53.574;10.054;2022-10-16T14:31:33;20.80;99.90
14000;DHT22;7075;53.574;10.054;2022-10-16T14:33:59;20.50;99.90
14000;DHT22;7075;53.574;10.054;2022-10-16T14:36:26;20.40;99.90
14000;DHT22;7075;53.574;10.054;2022-10-16T14:39:19;20.40;99.90
14000;DHT22;7075;53.574;10.054;2022-10-16T14:41:47;20.40;99.90
14000;DHT22;7075;53.574;10.054;2022-10-16T14:44:14;20.10;99.90
14000;DHT22;7075;53.574;10.054;2022-10-16T14:46:42;20.00;99.90
14000;DHT22;7075;53.574;10.054;2022-10-16T14:51:38;20.20;99.90
14000;DHT22;7075;53.574;10.054;2022-10-16T14:54:14;20.40;99.90
14000;DHT22;7075;53.574;10.054;2022-10-16T14:56:54;20.30;99.90
14000;DHT22;7075;53.574;10.054;2022-10-16T14:59:34;20.30;99.90
14000;DHT22;7075;53.574;10.054;2022-10-16T15:04:54;19.70;99.90
14000;DHT22;7075;53.574;10.054;2022-10-16T15:07:20;19.50;99.90
14000;DHT22;7075;53.574;10.054;2022-10-16T15:09:45;19.40;99.90
14000;DHT22;7075;53.574;10.054;2022-10-16T15:12:12;19.40;99.90
14000;DHT22;7075;53.574;10.054;2022-10-16T15:14:38;19.40;99.90
14000;DHT22;7075;53.574;10.054;2022-10-16T15:17:03;19.40;99.90
14000;DHT22;7075;53.574;10.054;2022-10-16T15:19:30;19.40;99.90
14000;DHT22;7075;53.574;10.054;2022-10-16T15:21:56;19.40;99.90
14000;DHT22;7075;53.574;10.054;2022-10-16T15:24:22;19.20;99.90
14000;DHT22;7075;53.574;10.054;2022-10-16T15:26:47;19.20;99.90
14000;DHT22;7075;53.574;10.054;2022-10-16T15:29:14;19.20;99.90
14000;DHT22;7075;53.574;10.054;2022-10-16T15:31:40;19.20;99.90
14000;DHT22;7075;53.574;10.054;2022-10-16T15:34:09;19.30;99.90
14000;DHT22;7075;53.574;10.054;2022-10-16T15:36:36;19.10;99.90
14000;DHT22;7075;53.574;10.054;2022-10-16T15:39:04;19.20;99.90
14000;DHT22;7075;53.574;10.054;2022-10-16T15:41:29;19.00;99.90
14000;DHT22;7075;53.574;10.054;2022-10-16T15:43:55;18.90;99.90
14000;DHT22;7075;53.574;10.054;2022-10-16T15:46:22;19.00;99.90
14000;DHT22;7075;53.574;10.054;2022-10-16T15:48:50;18.80;99.90
14000;DHT22;7075;53.574;10.054;2022-10-16T15:51:16;18.80;99.90
14000;DHT22;7075;53.574;10.054;2022-10-16T15:53:42;18.80;99.90
14000;DHT22;7075;53.574;10.054;2022-10-16T15:56:11;18.60;99.90
14000;DHT22;7075;53.574;10.054;2022-10-16T15:58:37;18.60;99.90
14000;DHT22;7075;53.574;10.054;2022-10-16T16:01:03;18.60;99.90
14000;DHT22;7075;53.574;10.054;2022-10-16T16:03:30;18.70;99.90
14000;DHT22;7075;53.574;10.054;2022-10-16T16:05:56;18.70;99.90
14000;DHT22;7075;53.574;10.054;2022-10-16T16:08:22;18.60;99.90
14000;DHT22;7075;53.574;10.054;2022-10-16T16:11:01;18.70;99.90
14000;DHT22;7075;53.574;10.054;2022-10-16T16:13:27;18.80;99.90
14000;DHT22;7075;53.574;10.054;2022-10-16T16:15:53;18.70;99.90
14000;DHT22;7075;53.574;10.054;2022-10-16T16:18:19;18.60;99.90
14000;DHT22;7075;53.574;10.054;2022-10-16T16:20:45;18.70;99.90
14000;DHT22;7075;53.574;10.054;2022-10-16T16:23:11;18.70;99.90
14000;DHT22;7075;53.574;10.054;2022-10-16T16:25:37;18.60;99.90
14000;DHT22;7075;53.574;10.054;2022-10-16T16:28:02;18.60;99.90
14000;DHT22;7075;53.574;10.054;2022-10-16T16:30:28;18.60;99.90
14000;DHT22;7075;53.574;10.054;2022-10-16T16:32:54;18.60;99.90
14000;DHT22;7075;53.574;10.054;2022-10-16T16:35:19;18.60;99.90
14000;DHT22;7075;53.574;10.054;2022-10-16T16:37:47;18.50;99.90
14000;DHT22;7075;53.574;10.054;2022-10-16T16:40:12;18.60;99.90
14000;DHT22;7075;53.574;10.054;2022-10-16T16:42:38;18.60;99.90
14000;DHT22;7075;53.574;10.054;2022-10-16T16:45:05;18.60;99.90
14000;DHT22;7075;53.574;10.054;2022-10-16T16:47:30;18.50;99.90
14000;DHT22;7075;53.574;10.054;2022-10-16T16:49:56;18.40;99.90
14000;DHT22;7075;53.574;10.054;2022-10-16T16:52:22;18.30;99.90
14000;DHT22;7075;53.574;10.054;2022-10-16T16:54:48;18.20;99.90
14000;DHT22;7075;53.574;10.054;2022-10-16T16:57:20;18.10;99.90
14000;DHT22;7075;53.574;10.054;2022-10-16T16:59:46;18.10;99.90
14000;DHT22;7075;53.574;10.054;2022-10-16T17:02:12;18.10;99.90
14000;DHT22;7075;53.574;10.054;2022-10-16T17:04:38;18.00;99.90
14000;DHT22;7075;53.574;10.054;2022-10-16T17:07:03;17.90;99.90
14000;DHT22;7075;53.574;10.054;2022-10-16T17:09:32;17.80;99.90
14000;DHT22;7075;53.574;10.054;2022-10-16T17:11:58;17.90;99.90